Time;durP1;ratioP1;P1;durP2;ratioP2;P2;SDS_P1;SDS_P2;PMS_P1;PMS_P2;Temp;Humidity;BMP_temperature;BMP_pressure;BME280_temperature;BME280_humidity;BME280_pressure;Samples;Min_cycle;Max_cycle;Signal;HPM_P1;HPM_P2
2024/03/27 00:00:20;;;;;;;;;;;;;;;2.97;100.00;101063.63;5064702;28;20417;-69
2024/03/27 00:02:45;;;;;;;;;;;;;;;2.98;100.00;101070.56;5056218;28;19932;-68
2024/03/27 00:05:12;;;;;;;;;;;;;;;3.00;100.00;101067.81;5044192;28;19924;-66
2024/03/27 00:07:37;;;;;;;;;;;;;;;2.97;100.00;101071.50;5068280;28;19943;-67
2024/03/27 00:10:02;;;;;;;;;;;;;;;2.99;100.00;101072.25;5061564;28;19971;-69
2024/03/27 00:12:29;;;;;;;;;;;;;;;3.00;100.00;101075.72;5060915;28;19921;-69
2024/03/27 00:14:54;;;;;;;;;;;;;;;3.02;100.00;101076.47;5071024;28;19932;-70
2024/03/27 00:17:19;;;;;;;;;;;;;;;3.05;100.00;101078.88;5067863;28;19927;-69
2024/03/27 00:19:45;;;;;;;;;;;;;;;3.05;100.00;101070.97;5065229;28;19965;-67
2024/03/27 00:22:10;;;;;;;;;;;;;;;3.02;100.00;101084.34;5063485;28;20365;-67
2024/03/27 00:24:37;;;;;;;;;;;;;;;2.97;100.00;101083.81;5076145;28;19924;-68
2024/03/27 00:27:04;;;;;;;;;;;;;;;2.93;100.00;101087.63;5061831;28;19925;-67
2024/03/27 00:29:29;;;;;;;;;;;;;;;2.91;100.00;101094.78;5057360;28;19971;-69
2024/03/27 00:31:55;;;;;;;;;;;;;;;2.82;100.00;101088.34;5062086;28;20330;-68
2024/03/27 00:34:21;;;;;;;;;;;;;;;2.66;100.00;101093.81;5071238;28;19924;-68
2024/03/27 00:36:46;;;;;;;;;;;;;;;2.65;100.00;101100.03;5071699;28;19974;-67
2024/03/27 00:39:12;;;;;;;;;;;;;;;2.62;100.00;101099.41;5059105;28;19924;-67
2024/03/27 00:41:37;;;;;;;;;;;;;;;2.65;100.00;101105.28;5062745;28;19925;-69
2024/03/27 00:44:02;;;;;;;;;;;;;;;2.69;100.00;101103.28;5067903;28;19973;-68
2024/03/27 00:46:28;;;;;;;;;;;;;;;2.61;100.00;101101.19;5068770;28;19947;-67
2024/03/27 00:48:53;;;;;;;;;;;;;;;2.57;100.00;101110.19;5073118;28;20014;-68
2024/03/27 00:51:18;;;;;;;;;;;;;;;2.56;100.00;101113.75;5069514;28;19930;-68
2024/03/27 00:53:43;;;;;;;;;;;;;;;2.54;100.00;101112.19;5068592;28;19971;-70
2024/03/27 00:56:09;;;;;;;;;;;;;;;2.52;100.00;101108.81;5061236;28;19931;-66
2024/03/27 00:58:34;;;;;;;;;;;;;;;2.56;100.00;101110.28;5067040;28;19982;-68
2024/03/27 01:00:59;;;;;;;;;;;;;;;2.59;100.00;101104.81;5061974;28;19931;-67
2024/03/27 01:03:25;;;;;;;;;;;;;;;2.63;100.00;101111.59;5069866;28;19928;-69
2024/03/27 01:05:50;;;;;;;;;;;;;;;2.68;100.00;101114.75;5069251;28;19920;-69
2024/03/27 01:08:16;;;;;;;;;;;;;;;2.68;100.00;101115.59;5073069;28;19929;-70
2024/03/27 01:10:41;;;;;;;;;;;;;;;2.68;100.00;101125.28;5063596;28;19920;-67
2024/03/27 01:13:07;;;;;;;;;;;;;;;2.63;100.00;101125.59;5068446;28;19932;-68
2024/03/27 01:15:32;;;;;;;;;;;;;;;2.63;100.00;101122.97;5069817;28;19921;-68
2024/03/27 01:17:58;;;;;;;;;;;;;;;2.59;100.00;101129.34;5065278;28;19973;-68
2024/03/27 01:20:24;;;;;;;;;;;;;;;2.50;100.00;101132.59;5066237;28;19924;-66
2024/03/27 01:22:49;;;;;;;;;;;;;;;2.48;100.00;101134.47;5055427;28;20266;-69
2024/03/27 01:25:17;;;;;;;;;;;;;;;2.43;100.00;101139.19;5059454;28;19977;-68
2024/03/27 01:27:42;;;;;;;;;;;;;;;2.42;100.00;101138.34;5063359;28;19928;-68
2024/03/27 01:30:08;;;;;;;;;;;;;;;2.48;100.00;101145.00;5061671;28;19977;-69
2024/03/27 01:32:36;;;;;;;;;;;;;;;2.46;100.00;101147.72;5062869;28;19924;-67
2024/03/27 01:35:02;;;;;;;;;;;;;;;2.37;100.00;101144.88;5068828;28;20025;-70
2024/03/27 01:37:28;;;;;;;;;;;;;;;2.29;100.00;101147.97;5055132;28;20093;-70
2024/03/27 01:39:53;;;;;;;;;;;;;;;2.23;100.00;101150.16;5043615;28;19920;-67
2024/03/27 01:42:19;;;;;;;;;;;;;;;2.14;100.00;101149.00;5064878;28;20450;-66
2024/03/27 01:44:44;;;;;;;;;;;;;;;2.07;100.00;101161.69;5065761;28;19924;-65
2024/03/27 01:47:10;;;;;;;;;;;;;;;2.05;100.00;101158.31;5059877;28;20019;-67
2024/03/27 01:49:36;;;;;;;;;;;;;;;2.03;100.00;101154.94;5075171;28;19968;-66
2024/03/27 01:52:04;;;;;;;;;;;;;;;1.99;100.00;101157.84;5061325;28;19920;-68
2024/03/27 01:54:29;;;;;;;;;;;;;;;1.93;100.00;101151.19;5066804;28;19990;-67
2024/03/27 01:56:56;;;;;;;;;;;;;;;1.94;100.00;101159.91;5056539;28;20330;-67
2024/03/27 01:59:22;;;;;;;;;;;;;;;1.93;100.00;101159.06;5061247;28;19951;-67
2024/03/27 02:01:48;;;;;;;;;;;;;;;1.86;100.00;101157.78;5065136;28;19925;-67
2024/03/27 02:04:14;;;;;;;;;;;;;;;1.77;100.00;101166.25;5068489;28;20501;-70
2024/03/27 02:06:40;;;;;;;;;;;;;;;1.65;100.00;101169.63;5065061;28;19928;-70
2024/03/27 02:09:06;;;;;;;;;;;;;;;1.61;100.00;101158.47;5062067;28;19925;-68
2024/03/27 02:11:31;;;;;;;;;;;;;;;1.61;100.00;101158.47;5065000;28;19971;-67
2024/03/27 02:13:57;;;;;;;;;;;;;;;1.68;100.00;101151.91;5055698;28;19925;-70
2024/03/27 02:16:22;;;;;;;;;;;;;;;1.77;100.00;101161.00;5061899;28;20384;-69
2024/03/27 02:18:47;;;;;;;;;;;;;;;1.83;100.00;101163.25;5063807;28;20272;-69
2024/03/27 02:24:00;;;;;;;;;;;;;;;1.94;100.00;101159.91;5054009;28;19925;-67
2024/03/27 02:26:35;;;;;;;;;;;;;;;1.98;100.00;101162.25;5056593;28;19973;-67
2024/03/27 02:29:00;;;;;;;;;;;;;;;1.99;100.00;101163.94;5064354;28;19924;-65
2024/03/27 02:31:26;;;;;;;;;;;;;;;1.98;100.00;101159.63;5063992;28;19924;-67
2024/03/27 02:33:51;;;;;;;;;;;;;;;1.92;100.00;101157.38;5060465;28;19948;-70
2024/03/27 02:36:16;;;;;;;;;;;;;;;1.83;100.00;101157.97;5060357;28;19973;-68
2024/03/27 02:38:42;;;;;;;;;;;;;;;1.86;100.00;101163.03;5057392;28;19972;-69
2024/03/27 02:41:07;;;;;;;;;;;;;;;1.82;100.00;101161.56;5057628;28;19928;-68
2024/03/27 02:43:32;;;;;;;;;;;;;;;1.82;100.00;101161.56;5065900;28;19947;-67
2024/03/27 02:45:58;;;;;;;;;;;;;;;1.77;100.00;101155.75;5067460;28;19930;-69
2024/03/27 02:48:23;;;;;;;;;;;;;;;1.80;100.00;101158.19;5061439;28;20401;-68
2024/03/27 02:50:48;;;;;;;;;;;;;;;1.81;100.00;101150.19;5058703;28;19921;-68
2024/03/27 02:53:14;;;;;;;;;;;;;;;1.83;100.00;101157.97;5063261;28;20015;-68
2024/03/27 02:55:39;;;;;;;;;;;;;;;1.89;100.00;101162.00;5067279;28;19960;-70
2024/03/27 02:58:04;;;;;;;;;;;;;;;1.95;100.00;101157.19;5059426;28;19932;-69
2024/03/27 03:00:30;;;;;;;;;;;;;;;1.98;100.00;101149.13;5066614;28;20302;-67
2024/03/27 03:02:55;;;;;;;;;;;;;;;1.99;100.00;101153.44;5060517;28;19936;-68
2024/03/27 03:05:20;;;;;;;;;;;;;;;2.06;100.00;101159.16;5068064;28;19931;-69
2024/03/27 03:07:46;;;;;;;;;;;;;;;2.06;100.00;101154.75;5075034;28;19928;-68
2024/03/27 03:10:12;;;;;;;;;;;;;;;2.10;100.00;101158.84;5068415;28;20150;-68
2024/03/27 03:12:37;;;;;;;;;;;;;;;2.09;100.00;101164.22;5070805;28;20307;-70
2024/03/27 03:15:04;;;;;;;;;;;;;;;2.06;100.00;101160.00;5061544;28;19986;-69
2024/03/27 03:17:30;;;;;;;;;;;;;;;2.06;100.00;101165.25;5054901;28;19927;-69
2024/03/27 03:19:55;;;;;;;;;;;;;;;2.00;100.00;101167.41;5059631;28;19924;-68
2024/03/27 03:22:20;;;;;;;;;;;;;;;1.95;100.00;101164.22;5066637;28;19947;-67
2024/03/27 03:24:46;;;;;;;;;;;;;;;1.99;100.00;101161.31;5052572;28;20300;-71
2024/03/27 03:27:12;;;;;;;;;;;;;;;2.03;100.00;101164.59;5069812;28;19925;-70
2024/03/27 03:29:37;;;;;;;;;;;;;;;2.02;100.00;101158.47;5064745;28;19936;-65
2024/03/27 03:32:03;;;;;;;;;;;;;;;2.05;100.00;101154.84;5066910;28;19932;-67
2024/03/27 03:34:28;;;;;;;;;;;;;;;2.08;100.00;101147.59;5063979;28;19977;-69
2024/03/27 03:36:54;;;;;;;;;;;;;;;2.11;100.00;101147.41;5063563;28;20307;-68
2024/03/27 03:39:19;;;;;;;;;;;;;;;2.15;100.00;101148.88;5059497;28;19924;-67
2024/03/27 03:41:45;;;;;;;;;;;;;;;2.16;100.00;101150.56;5065811;28;20349;-70
2024/03/27 03:44:10;;;;;;;;;;;;;;;2.17;100.00;101148.78;5067855;28;19932;-68
2024/03/27 03:46:35;;;;;;;;;;;;;;;2.12;100.00;101149.09;5056354;28;20413;-69
2024/03/27 03:49:01;;;;;;;;;;;;;;;2.14;100.00;101156.88;5059801;28;20352;-70
2024/03/27 03:51:26;;;;;;;;;;;;;;;2.18;100.00;101156.56;5066850;28;19928;-67
2024/03/27 03:53:52;;;;;;;;;;;;;;;2.18;100.00;101153.94;5053419;28;19935;-69
2024/03/27 03:56:17;;;;;;;;;;;;;;;2.20;100.00;101163.50;5069800;28;19925;-70
2024/03/27 03:58:43;;;;;;;;;;;;;;;2.18;100.00;101177.59;5063109;28;19921;-67
2024/03/27 04:01:08;;;;;;;;;;;;;;;2.13;100.00;101179.69;5063563;28;19924;-68
2024/03/27 04:03:33;;;;;;;;;;;;;;;2.07;100.00;101169.56;5060960;28;20337;-67
2024/03/27 04:05:59;;;;;;;;;;;;;;;2.02;100.00;101160.25;5045261;28;20332;-67
2024/03/27 04:08:24;;;;;;;;;;;;;;;2.08;100.00;101162.53;5066771;28;19967;-69
2024/03/27 04:10:49;;;;;;;;;;;;;;;2.12;100.00;101164.84;5061632;28;19927;-70
2024/03/27 04:13:15;;;;;;;;;;;;;;;2.20;100.00;101166.97;5064928;28;19948;-69
2024/03/27 04:15:41;;;;;;;;;;;;;;;2.28;100.00;101158.59;5064781;28;19967;-68
2024/03/27 04:18:06;;;;;;;;;;;;;;;2.31;100.00;101158.38;5052019;28;20031;-69
2024/03/27 04:20:32;;;;;;;;;;;;;;;2.33;100.00;101154.75;5060815;28;20019;-67
2024/03/27 04:22:57;;;;;;;;;;;;;;;2.23;100.00;101158.88;5065737;28;19928;-66
2024/03/27 04:25:23;;;;;;;;;;;;;;;2.06;100.00;101160.00;5055140;28;19931;-71
2024/03/27 04:27:49;;;;;;;;;;;;;;;1.93;100.00;101158.22;5065710;28;19929;-68
2024/03/27 04:30:14;;;;;;;;;;;;;;;1.81;100.00;101155.47;5074242;28;20419;-68
2024/03/27 04:32:40;;;;;;;;;;;;;;;1.89;100.00;101159.38;5061275;28;19927;-71
2024/03/27 04:35:06;;;;;;;;;;;;;;;2.06;100.00;101153.91;5068591;28;19931;-67
2024/03/27 04:37:31;;;;;;;;;;;;;;;2.24;100.00;101154.47;5077656;28;19924;-67
2024/03/27 04:39:57;;;;;;;;;;;;;;;2.36;100.00;101151.06;5068849;28;20007;-71
2024/03/27 04:42:22;;;;;;;;;;;;;;;2.41;100.00;101151.59;5055277;28;20418;-68
2024/03/27 04:44:47;;;;;;;;;;;;;;;2.35;100.00;101150.22;5060404;28;20371;-70
2024/03/27 04:47:13;;;;;;;;;;;;;;;2.24;100.00;101147.44;5064952;28;19924;-67
2024/03/27 04:49:38;;;;;;;;;;;;;;;2.18;100.00;101148.69;5064196;28;19924;-68
2024/03/27 04:52:03;;;;;;;;;;;;;;;2.22;100.00;101143.22;5068736;28;19931;-67
2024/03/27 04:54:29;;;;;;;;;;;;;;;2.28;100.00;101146.28;5061602;28;20023;-69
2024/03/27 04:56:55;;;;;;;;;;;;;;;2.20;100.00;101147.75;5065151;28;19959;-66
2024/03/27 04:59:22;;;;;;;;;;;;;;;2.13;100.00;101148.16;5068491;28;19925;-68
2024/03/27 05:01:48;;;;;;;;;;;;;;;2.12;100.00;101151.72;5063929;28;20027;-70
2024/03/27 05:04:13;;;;;;;;;;;;;;;2.08;100.00;101155.47;5071849;28;19967;-66
2024/03/27 05:06:41;;;;;;;;;;;;;;;2.04;100.00;101154.00;5076983;28;19921;-69
2024/03/27 05:09:09;;;;;;;;;;;;;;;2.09;100.00;101158.97;5080571;28;20014;-67
2024/03/27 05:11:41;;;;;;;;;;;;;;;2.18;100.00;101164.44;5071959;28;19972;-69
2024/03/27 05:14:06;;;;;;;;;;;;;;;2.13;100.00;101171.78;5070191;28;20554;-69
2024/03/27 05:16:31;;;;;;;;;;;;;;;2.23;100.00;101165.94;5066824;28;19925;-70
2024/03/27 05:18:57;;;;;;;;;;;;;;;2.33;100.00;101164.41;5063522;28;19930;-72
2024/03/27 05:21:23;;;;;;;;;;;;;;;2.51;100.00;101164.97;5061588;28;19924;-72
2024/03/27 05:23:48;;;;;;;;;;;;;;;2.71;100.00;101175.88;5032309;28;19921;-71
2024/03/27 05:26:14;;;;;;;;;;;;;;;2.87;100.00;101169.56;5084234;28;19932;-68
2024/03/27 05:28:39;;;;;;;;;;;;;;;3.03;100.00;101175.50;5063045;28;20433;-67
2024/03/27 05:31:05;;;;;;;;;;;;;;;3.10;100.00;101188.13;5067566;28;19924;-68
2024/03/27 05:33:30;;;;;;;;;;;;;;;3.01;100.00;101190.53;5066336;28;20280;-68
2024/03/27 05:35:55;;;;;;;;;;;;;;;2.82;100.00;101192.72;5063369;28;19927;-65
2024/03/27 05:38:21;;;;;;;;;;;;;;;2.77;100.00;101185.97;5066906;28;19970;-66
2024/03/27 05:40:46;;;;;;;;;;;;;;;2.91;100.00;101189.50;5071499;28;20396;-66
2024/03/27 05:43:12;;;;;;;;;;;;;;;3.01;100.00;101187.91;5077205;28;19928;-67
2024/03/27 05:45:37;;;;;;;;;;;;;;;2.91;100.00;101186.84;5072031;28;20025;-67
2024/03/27 05:48:03;;;;;;;;;;;;;;;2.78;100.00;101190.28;5064005;28;19960;-69
2024/03/27 05:50:28;;;;;;;;;;;;;;;2.75;100.00;101198.38;5063527;28;20341;-70
2024/03/27 05:52:53;;;;;;;;;;;;;;;2.74;100.00;101193.22;5044774;28;19927;-71
2024/03/27 05:55:20;;;;;;;;;;;;;;;2.62;100.00;101187.00;5058264;28;19925;-68
2024/03/27 05:57:45;;;;;;;;;;;;;;;2.56;100.00;101187.38;5062769;28;20014;-70
2024/03/27 06:00:12;;;;;;;;;;;;;;;2.50;100.00;101193.06;5063696;28;19924;-68
2024/03/27 06:02:37;;;;;;;;;;;;;;;2.58;100.00;101197.81;5063855;28;20065;-68
2024/03/27 06:05:04;;;;;;;;;;;;;;;2.69;100.00;101196.16;5067988;28;19955;-69
2024/03/27 06:07:29;;;;;;;;;;;;;;;2.78;100.00;101192.91;5067564;28;19924;-67
2024/03/27 06:09:55;;;;;;;;;;;;;;;2.81;100.00;101189.25;5049277;28;19932;-71
2024/03/27 06:12:21;;;;;;;;;;;;;;;2.93;100.00;101190.22;5061768;28;19950;-69
2024/03/27 06:14:46;;;;;;;;;;;;;;;2.98;100.00;101193.38;5064179;28;20384;-69
2024/03/27 06:17:11;;;;;;;;;;;;;;;2.94;100.00;101184.03;5058877;28;19931;-66
2024/03/27 06:19:37;;;;;;;;;;;;;;;2.90;100.00;101193.06;5068639;28;19924;-68
2024/03/27 06:22:03;;;;;;;;;;;;;;;2.83;100.00;101197.03;5063135;28;19925;-70
2024/03/27 06:24:28;;;;;;;;;;;;;;;2.75;100.00;101198.38;5073637;28;21616;-66
2024/03/27 06:26:56;;;;;;;;;;;;;;;2.70;100.00;101195.22;5060820;28;20414;-71
2024/03/27 06:29:21;;;;;;;;;;;;;;;2.71;100.00;101189.03;5061502;28;19925;-68
2024/03/27 06:31:46;;;;;;;;;;;;;;;2.76;100.00;101188.72;5051783;28;19983;-67
2024/03/27 06:34:12;;;;;;;;;;;;;;;2.77;100.00;101178.09;5060223;28;19970;-66
2024/03/27 06:36:37;;;;;;;;;;;;;;;2.83;100.00;101191.78;5070885;28;19927;-69
2024/03/27 06:39:03;;;;;;;;;;;;;;;2.85;100.00;101184.63;5056329;28;19982;-69
2024/03/27 06:41:28;;;;;;;;;;;;;;;2.85;100.00;101184.63;5068391;28;19932;-69
2024/03/27 06:43:53;;;;;;;;;;;;;;;2.76;100.00;101171.13;5063064;28;19920;-68
2024/03/27 06:46:20;;;;;;;;;;;;;;;2.77;100.00;101170.19;5054467;28;19931;-67
2024/03/27 06:48:56;;;;;;;;;;;;;;;2.83;100.00;101170.72;5055983;28;19965;-69
2024/03/27 06:51:22;;;;;;;;;;;;;;;2.85;100.00;101163.56;5064664;28;19924;-67
2024/03/27 06:53:47;;;;;;;;;;;;;;;2.80;100.00;101172.63;5062711;28;19928;-68
2024/03/27 06:56:12;;;;;;;;;;;;;;;2.85;100.00;101163.56;5061433;28;19924;-67
2024/03/27 06:58:38;;;;;;;;;;;;;;;2.97;100.00;101173.28;5055785;28;20372;-72
2024/03/27 07:01:03;;;;;;;;;;;;;;;3.08;100.00;101176.03;5060741;28;19978;-70
2024/03/27 07:03:28;;;;;;;;;;;;;;;3.11;100.00;101165.28;5059563;28;19921;-70
2024/03/27 07:05:54;;;;;;;;;;;;;;;3.21;100.00;101161.09;5057460;28;20006;-68
2024/03/27 07:08:19;;;;;;;;;;;;;;;3.30;100.00;101178.88;5057775;28;19921;-68
2024/03/27 07:10:44;;;;;;;;;;;;;;;3.33;100.00;101178.66;5065769;28;19921;-66
2024/03/27 07:13:10;;;;;;;;;;;;;;;3.34;100.00;101176.88;5061159;28;19979;-69
2024/03/27 07:15:35;;;;;;;;;;;;;;;3.34;100.00;101182.13;5063663;28;19928;-66
2024/03/27 07:18:00;;;;;;;;;;;;;;;3.45;100.00;101186.66;5062305;28;19920;-65
2024/03/27 07:20:26;;;;;;;;;;;;;;;3.64;100.00;101184.44;5061081;28;19929;-67
2024/03/27 07:22:51;;;;;;;;;;;;;;;3.77;100.00;101187.06;5063145;28;19992;-69
2024/03/27 07:25:18;;;;;;;;;;;;;;;3.86;100.00;101196.94;5054527;28;20013;-68
2024/03/27 07:27:44;;;;;;;;;;;;;;;3.82;100.00;101188.41;5060950;28;19932;-66
2024/03/27 07:30:09;;;;;;;;;;;;;;;3.80;100.00;101185.03;5043483;28;19925;-67
2024/03/27 07:32:34;;;;;;;;;;;;;;;3.82;100.00;101171.75;5065574;28;19924;-69
2024/03/27 07:35:00;;;;;;;;;;;;;;;3.93;100.00;101182.34;5058166;28;19925;-67
2024/03/27 07:37:25;;;;;;;;;;;;;;;4.06;100.00;101184.97;5065858;28;20398;-69
2024/03/27 07:39:50;;;;;;;;;;;;;;;4.11;100.00;101172.31;5060862;28;20062;-68
2024/03/27 07:42:16;;;;;;;;;;;;;;;4.20;100.00;101171.63;5067879;28;19928;-69
2024/03/27 07:44:41;;;;;;;;;;;;;;;4.34;100.00;101174.09;5057928;28;19921;-66
2024/03/27 07:47:07;;;;;;;;;;;;;;;4.36;100.00;101172.19;5064821;28;19931;-69
2024/03/27 07:49:32;;;;;;;;;;;;;;;4.19;100.00;101169.94;5059743;28;19940;-65
2024/03/27 07:51:57;;;;;;;;;;;;;;;4.11;100.00;101167.03;5054518;28;19921;-66
2024/03/27 07:54:23;;;;;;;;;;;;;;;4.12;100.00;101166.91;5057463;28;20017;-68
2024/03/27 07:56:48;;;;;;;;;;;;;;;4.13;100.00;101165.97;5066646;28;19920;-68
2024/03/27 07:59:13;;;;;;;;;;;;;;;4.37;100.00;101157.22;5064092;28;19959;-67
2024/03/27 08:01:39;;;;;;;;;;;;;;;4.41;100.00;101159.50;5062752;28;19920;-70
2024/03/27 08:04:05;;;;;;;;;;;;;;;4.46;100.00;101157.38;5067406;28;19951;-69
2024/03/27 08:06:30;;;;;;;;;;;;;;;4.60;100.00;101151.06;5059639;28;19921;-67
2024/03/27 08:08:55;;;;;;;;;;;;;;;4.61;100.00;101156.22;5054270;28;19920;-67
2024/03/27 08:11:22;;;;;;;;;;;;;;;4.70;100.00;101148.59;5069042;28;19947;-70
2024/03/27 08:13:48;;;;;;;;;;;;;;;4.77;100.00;101153.28;5064765;28;19929;-67
2024/03/27 08:16:13;;;;;;;;;;;;;;;4.93;100.00;101150.34;5078460;28;19951;-67
2024/03/27 08:18:43;;;;;;;;;;;;;;;5.02;100.00;101154.91;5060125;28;20338;-66
2024/03/27 08:21:08;;;;;;;;;;;;;;;5.03;100.00;101151.31;5051083;28;20304;-67
2024/03/27 08:23:34;;;;;;;;;;;;;;;5.08;100.00;101149.16;5065312;28;19966;-69
2024/03/27 08:25:59;;;;;;;;;;;;;;;5.11;100.00;101153.34;5058211;28;20380;-67
2024/03/27 08:28:24;;;;;;;;;;;;;;;5.03;100.00;101146.03;5055750;28;20442;-68
2024/03/27 08:30:50;;;;;;;;;;;;;;;4.94;100.00;101149.38;5062343;28;19940;-66
2024/03/27 08:33:15;;;;;;;;;;;;;;;4.76;100.00;101151.59;5068959;28;19924;-68
2024/03/27 08:35:40;;;;;;;;;;;;;;;4.62;100.00;101155.25;5075545;28;20015;-67
2024/03/27 08:38:06;;;;;;;;;;;;;;;4.51;100.00;101149.94;5073919;28;19924;-68
2024/03/27 08:40:32;;;;;;;;;;;;;;;4.52;100.00;101154.28;5075800;28;19920;-68
2024/03/27 08:42:58;;;;;;;;;;;;;;;4.61;100.00;101161.50;5061466;28;20365;-69
2024/03/27 08:45:23;;;;;;;;;;;;;;;4.60;100.00;101154.53;5060260;28;19933;-68
2024/03/27 08:47:49;;;;;;;;;;;;;;;4.89;100.00;101143.59;5060555;28;19950;-67
2024/03/27 08:50:15;;;;;;;;;;;;;;;5.12;100.00;101147.94;5042873;28;19967;-68
2024/03/27 08:52:41;;;;;;;;;;;;;;;5.23;100.00;101147.97;5071244;28;20372;-68
2024/03/27 08:55:07;;;;;;;;;;;;;;;5.33;100.00;101142.81;5061125;28;19928;-69
2024/03/27 08:57:32;;;;;;;;;;;;;;;5.41;100.00;101144.84;5065453;28;19924;-69
2024/03/27 08:59:57;;;;;;;;;;;;;;;5.56;100.00;101143.66;5073528;28;19924;-69
2024/03/27 09:02:23;;;;;;;;;;;;;;;5.67;100.00;101143.66;5064249;28;19927;-68
2024/03/27 09:04:48;;;;;;;;;;;;;;;5.81;100.00;101143.41;5072335;28;19927;-67
2024/03/27 09:07:14;;;;;;;;;;;;;;;5.92;100.00;101131.16;5071008;28;19921;-67
2024/03/27 09:09:39;;;;;;;;;;;;;;;5.87;100.00;101132.34;5063904;28;20419;-68
2024/03/27 09:12:04;;;;;;;;;;;;;;;5.94;100.00;101138.00;5065479;28;19920;-67
2024/03/27 09:14:30;;;;;;;;;;;;;;;6.02;100.00;101134.72;5068405;28;19947;-71
2024/03/27 09:16:55;;;;;;;;;;;;;;;5.94;100.00;101135.34;5066870;28;19931;-69
2024/03/27 09:19:20;;;;;;;;;;;;;;;5.79;100.00;101129.47;5074396;28;19924;-70
2024/03/27 09:21:46;;;;;;;;;;;;;;;5.76;100.00;101139.41;5066990;28;20022;-68
2024/03/27 09:24:14;;;;;;;;;;;;;;;5.69;100.00;101138.22;5069660;28;19920;-68
2024/03/27 09:26:40;;;;;;;;;;;;;;;5.65;100.00;101121.78;5064539;28;19931;-69
2024/03/27 09:29:06;;;;;;;;;;;;;;;5.59;100.00;101138.13;5076888;28;20031;-68
2024/03/27 09:31:31;;;;;;;;;;;;;;;5.56;100.00;101127.81;5066519;28;19968;-69
2024/03/27 09:33:57;;;;;;;;;;;;;;;5.63;100.00;101123.72;5064160;28;20373;-68
2024/03/27 09:36:22;;;;;;;;;;;;;;;5.63;100.00;101126.34;5074681;28;19982;-69
2024/03/27 09:38:50;;;;;;;;;;;;;;;5.73;100.00;101118.53;5061183;28;19921;-70
2024/03/27 09:41:16;;;;;;;;;;;;;;;5.85;100.00;101115.75;5066081;28;19920;-71
2024/03/27 09:43:43;;;;;;;;;;;;;;;5.89;100.00;101114.56;5059942;28;20402;-69
2024/03/27 09:46:09;;;;;;;;;;;;;;;6.02;100.00;101111.75;5062662;28;19924;-67
2024/03/27 09:48:35;;;;;;;;;;;;;;;6.18;100.00;101114.00;5057193;28;19929;-71
2024/03/27 09:51:05;;;;;;;;;;;;;;;6.30;100.00;101107.69;5058864;28;19924;-70
2024/03/27 09:53:30;;;;;;;;;;;;;;;6.06;100.00;101083.25;5055883;28;20295;-69
2024/03/27 09:55:59;;;;;;;;;;;;;;;6.29;100.00;101115.75;5067273;28;19925;-67
2024/03/27 09:58:24;;;;;;;;;;;;;;;6.35;100.00;101116.09;5063166;28;20011;-70
2024/03/27 10:00:50;;;;;;;;;;;;;;;6.48;100.00;101108.84;5063348;28;19928;-70
2024/03/27 10:03:15;;;;;;;;;;;;;;;6.72;100.00;101105.09;5061293;28;19932;-69
2024/03/27 10:05:42;;;;;;;;;;;;;;;6.79;100.00;101103.63;5071758;28;19924;-68
2024/03/27 10:08:08;;;;;;;;;;;;;;;6.79;100.00;101108.91;5067649;28;19924;-67
2024/03/27 10:10:33;;;;;;;;;;;;;;;6.68;100.00;101106.34;5062543;28;19947;-67
2024/03/27 10:12:59;;;;;;;;;;;;;;;6.54;100.00;101096.88;5069154;28;20003;-69
2024/03/27 10:15:27;;;;;;;;;;;;;;;6.46;100.00;101088.75;5064334;28;19971;-70
2024/03/27 10:17:53;;;;;;;;;;;;;;;6.43;100.00;101087.22;5066998;28;19956;-70
2024/03/27 10:20:19;;;;;;;;;;;;;;;6.51;100.00;101092.69;5070916;28;19921;-67
2024/03/27 10:22:44;;;;;;;;;;;;;;;6.47;100.00;101087.78;5064777;28;19924;-68
2024/03/27 10:25:10;;;;;;;;;;;;;;;6.45;100.00;101098.50;5076079;28;19951;-67
2024/03/27 10:27:36;;;;;;;;;;;;;;;6.61;100.00;101099.84;5062103;28;19924;-72
2024/03/27 10:30:02;;;;;;;;;;;;;;;6.86;100.00;101094.16;5073179;28;19979;-65
2024/03/27 10:32:29;;;;;;;;;;;;;;;7.04;100.00;101086.47;5059845;28;20058;-69
2024/03/27 10:34:57;;;;;;;;;;;;;;;7.10;100.00;101094.72;5073456;28;19951;-65
2024/03/27 10:37:25;;;;;;;;;;;;;;;7.14;100.00;101093.50;5054368;28;19956;-67
2024/03/27 10:39:51;;;;;;;;;;;;;;;7.18;99.08;101101.16;5073712;28;19927;-68
2024/03/27 10:42:24;;;;;;;;;;;;;;;7.24;98.94;101090.06;5071260;28;19924;-70
2024/03/27 10:44:50;;;;;;;;;;;;;;;7.39;98.53;101089.56;5058261;28;19925;-71
2024/03/27 10:47:17;;;;;;;;;;;;;;;7.50;97.45;101087.75;5071438;28;19925;-71
2024/03/27 10:49:43;;;;;;;;;;;;;;;7.39;98.26;101078.13;5066164;28;19925;-66
2024/03/27 10:52:14;;;;;;;;;;;;;;;7.42;99.07;101088.44;5070866;28;19930;-71
2024/03/27 10:54:46;;;;;;;;;;;;;;;7.50;98.15;101088.59;5061028;28;19924;-67
2024/03/27 10:57:13;;;;;;;;;;;;;;;7.27;96.57;101087.97;5063216;28;20387;-69
2024/03/27 10:59:42;;;;;;;;;;;;;;;7.10;97.54;101080.66;5065054;28;20046;-68
2024/03/27 11:02:08;;;;;;;;;;;;;;;7.19;98.60;101084.31;5067643;28;19931;-70
2024/03/27 11:04:36;;;;;;;;;;;;;;;7.35;98.91;101079.38;5058880;28;20027;-69
2024/03/27 11:07:02;;;;;;;;;;;;;;;7.42;97.30;101075.19;5060863;28;19987;-67
2024/03/27 11:09:27;;;;;;;;;;;;;;;7.51;98.09;101084.97;5059550;28;20411;-69
2024/03/27 11:11:53;;;;;;;;;;;;;;;7.60;96.75;101081.53;5062199;28;20388;-70
2024/03/27 11:14:19;;;;;;;;;;;;;;;7.83;97.33;101078.66;5066363;28;20015;-69
2024/03/27 11:16:55;;;;;;;;;;;;;;;8.05;93.86;101076.56;5070360;28;20473;-68
2024/03/27 11:19:32;;;;;;;;;;;;;;;7.92;93.96;101067.22;5062303;28;19924;-67
2024/03/27 11:22:14;;;;;;;;;;;;;;;7.78;94.91;101066.63;5067663;28;19932;-67
2024/03/27 11:24:40;;;;;;;;;;;;;;;7.70;94.99;101063.81;5053912;28;19978;-70
2024/03/27 11:27:06;;;;;;;;;;;;;;;7.48;96.54;101064.03;5062700;28;19960;-69
2024/03/27 11:29:31;;;;;;;;;;;;;;;7.41;97.15;101058.47;5070924;28;20407;-69
2024/03/27 11:31:59;;;;;;;;;;;;;;;7.39;97.82;101054.28;5067675;28;19928;-72
2024/03/27 11:34:24;;;;;;;;;;;;;;;7.31;99.61;101056.75;5065633;28;20409;-69
2024/03/27 11:36:50;;;;;;;;;;;;;;;7.27;100.00;101053.53;5055791;28;19921;-68
2024/03/27 11:39:15;;;;;;;;;;;;;;;7.20;100.00;101054.19;5066862;28;19970;-69
2024/03/27 11:41:41;;;;;;;;;;;;;;;7.08;100.00;101054.28;5067036;28;19931;-68
2024/03/27 11:44:06;;;;;;;;;;;;;;;7.06;100.00;101042.16;5071832;28;19965;-70
2024/03/27 11:46:33;;;;;;;;;;;;;;;7.15;100.00;101052.78;5060821;28;19925;-68
2024/03/27 11:48:58;;;;;;;;;;;;;;;7.33;100.00;101045.06;5060831;28;19924;-67
2024/03/27 11:51:23;;;;;;;;;;;;;;;7.52;100.00;101049.59;5057874;28;20007;-69
2024/03/27 11:53:50;;;;;;;;;;;;;;;7.76;100.00;101046.53;5059677;28;19925;-68
2024/03/27 11:56:15;;;;;;;;;;;;;;;8.09;97.84;101045.28;5063178;28;19924;-67
2024/03/27 11:58:41;;;;;;;;;;;;;;;8.41;97.58;101044.22;5062593;28;20406;-73
2024/03/27 12:01:07;;;;;;;;;;;;;;;8.65;95.28;101039.25;5065983;28;19925;-70
2024/03/27 12:03:33;;;;;;;;;;;;;;;8.90;92.68;101038.63;5070357;28;19927;-68
2024/03/27 12:05:58;;;;;;;;;;;;;;;9.08;91.85;101035.22;5059134;28;19924;-66
2024/03/27 12:08:24;;;;;;;;;;;;;;;9.16;90.82;101025.53;5065072;28;19975;-67
2024/03/27 12:10:50;;;;;;;;;;;;;;;9.07;91.88;101038.88;5064535;28;19951;-67
2024/03/27 12:13:17;;;;;;;;;;;;;;;9.12;91.87;101036.59;5055363;28;20363;-67
2024/03/27 12:15:43;;;;;;;;;;;;;;;9.16;90.15;101030.00;5062755;28;19925;-69
2024/03/27 12:18:11;;;;;;;;;;;;;;;9.13;91.69;101032.97;5067559;28;20414;-69
2024/03/27 12:20:36;;;;;;;;;;;;;;;9.06;92.12;101030.06;5055706;28;20011;-69
2024/03/27 12:23:01;;;;;;;;;;;;;;;9.11;92.92;101030.47;5061503;28;20023;-68
2024/03/27 12:25:31;;;;;;;;;;;;;;;9.19;92.27;101024.41;5061349;28;20011;-68
2024/03/27 12:28:05;;;;;;;;;;;;;;;9.27;91.40;101027.19;5062977;28;19971;-66
2024/03/27 12:30:39;;;;;;;;;;;;;;;9.34;91.36;101022.94;5055239;28;20647;-67
2024/03/27 12:33:05;;;;;;;;;;;;;;;9.52;91.65;101012.31;5067107;28;19921;-70